createdAt,value
2019-05-21T00:03:18.096Z,14.60
2019-05-21T00:08:22.577Z,14.50
2019-05-21T00:13:26.922Z,14.50
2019-05-21T00:18:31.326Z,14.60
2019-05-21T00:23:35.726Z,14.50
2019-05-21T00:28:39.094Z,14.50
2019-05-21T00:34:19.932Z,14.40
2019-05-21T00:40:00.741Z,14.40
2019-05-21T00:45:05.894Z,14.30
2019-05-21T00:50:11.812Z,14.20
2019-05-21T00:55:16.213Z,14.10
2019-05-21T01:00:20.593Z,14.10
2019-05-21T01:05:24.954Z,14.00
2019-05-21T01:10:29.313Z,14.00
2019-05-21T01:15:33.744Z,14.00
2019-05-21T01:20:38.082Z,13.90
2019-05-21T01:25:42.799Z,13.90
2019-05-21T01:30:47.208Z,13.90
2019-05-21T01:35:51.604Z,13.90
2019-05-21T01:40:56.543Z,13.90
2019-05-21T01:46:00.887Z,13.80
2019-05-21T01:51:05.216Z,13.80
2019-05-21T01:56:09.555Z,13.70
2019-05-21T02:01:13.918Z,13.60
2019-05-21T02:06:18.319Z,13.50
2019-05-21T02:11:22.720Z,13.60
2019-05-21T02:16:27.087Z,13.50
2019-05-21T02:21:32.016Z,13.50
2019-05-21T02:26:36.371Z,13.40
2019-05-21T02:31:40.737Z,13.40
2019-05-21T02:36:45.152Z,13.40
2019-05-21T02:41:49.498Z,13.40
2019-05-21T02:46:53.826Z,13.40
2019-05-21T02:51:58.168Z,13.30
2019-05-21T02:57:03.204Z,13.30
2019-05-21T03:02:18.125Z,13.20
2019-05-21T03:07:25.531Z,13.30
2019-05-21T03:12:28.514Z,13.30
2019-05-21T03:17:32.891Z,13.30
2019-05-21T03:22:37.522Z,13.40
2019-05-21T03:27:41.926Z,13.40
2019-05-21T03:32:46.298Z,13.40
2019-05-21T03:37:50.700Z,13.30
2019-05-21T03:42:55.073Z,13.30
2019-05-21T03:47:59.468Z,13.30
2019-05-21T03:53:04.028Z,13.30
2019-05-21T03:58:08.474Z,13.30
2019-05-21T04:03:12.886Z,13.20
2019-05-21T04:08:17.279Z,13.20
2019-05-21T04:13:21.783Z,13.20
2019-05-21T04:18:27.800Z,13.30
2019-05-21T04:23:32.267Z,13.30
2019-05-21T04:28:36.619Z,13.40
2019-05-21T04:33:40.971Z,13.50
2019-05-21T04:38:45.415Z,13.70
2019-05-21T04:43:49.768Z,13.80
2019-05-21T04:48:54.193Z,13.90
2019-05-21T04:53:58.548Z,14.00
2019-05-21T04:59:02.883Z,14.20
2019-05-21T05:04:07.699Z,14.40
2019-05-21T05:09:12.039Z,14.50
2019-05-21T05:14:16.442Z,14.60
2019-05-21T05:19:20.846Z,14.80
2019-05-21T05:24:25.204Z,15.00
2019-05-21T05:29:29.607Z,15.10
2019-05-21T05:34:33.973Z,15.30
2019-05-21T05:39:38.398Z,15.40
2019-05-21T05:44:42.738Z,15.70
2019-05-21T05:49:57.379Z,15.90
2019-05-21T05:55:01.776Z,16.20
2019-05-21T06:00:09.487Z,16.40
2019-05-21T06:05:14.373Z,16.50
2019-05-21T06:10:19.127Z,16.60
2019-05-21T06:15:23.529Z,16.70
2019-05-21T06:20:27.989Z,16.90
2019-05-21T06:25:32.397Z,17.10
2019-05-21T06:30:36.738Z,18.10
2019-05-21T06:35:41.075Z,18.90
2019-05-21T06:40:45.474Z,20.40
2019-05-21T06:45:50.791Z,20.90
2019-05-21T06:50:55.128Z,21.40
2019-05-21T06:55:59.511Z,20.90
2019-05-21T07:01:04.096Z,20.40
2019-05-21T07:06:08.564Z,20.30
2019-05-21T07:11:12.930Z,20.20
2019-05-21T07:16:17.268Z,20.20
2019-05-21T07:21:21.645Z,20.20
2019-05-21T07:26:26.041Z,20.40
2019-05-21T07:31:30.452Z,20.60
2019-05-21T07:36:34.820Z,20.60
2019-05-21T07:41:39.232Z,20.60
2019-05-21T07:46:43.692Z,20.80
2019-05-21T07:51:48.025Z,21.10
2019-05-21T07:56:52.443Z,21.30
2019-05-21T08:01:56.778Z,21.50
2019-05-21T08:07:01.132Z,21.40
2019-05-21T08:12:27.454Z,21.60
2019-05-21T08:17:17.353Z,21.50
2019-05-21T08:22:22.279Z,21.20
2019-05-21T08:27:26.674Z,21.50
2019-05-21T08:32:31.187Z,21.90
2019-05-21T08:37:35.583Z,22.30
2019-05-21T08:42:40.073Z,22.40
2019-05-21T08:47:45.503Z,22.50
2019-05-21T08:52:50.847Z,22.70
2019-05-21T08:58:06.414Z,22.80
2019-05-21T09:03:01.358Z,22.80
2019-05-21T09:08:06.741Z,23.00
2019-05-21T09:13:11.259Z,23.40
2019-05-21T09:18:16.847Z,23.70
2019-05-21T09:23:24.964Z,23.90
2019-05-21T09:28:29.465Z,24.10
2019-05-21T09:33:34.959Z,24.20
2019-05-21T09:38:39.308Z,24.10
2019-05-21T09:43:43.723Z,24.20
2019-05-21T09:48:48.069Z,24.10
2019-05-21T09:53:52.420Z,24.00
2019-05-21T09:58:58.440Z,24.40
2019-05-21T10:04:06.283Z,24.70
2019-05-21T10:09:12.418Z,24.70
2019-05-21T10:14:16.818Z,24.60
2019-05-21T10:19:21.166Z,24.40
2019-05-21T10:24:25.576Z,24.10
2019-05-21T10:29:31.357Z,24.30
2019-05-21T10:34:35.790Z,24.70
2019-05-21T10:39:40.124Z,25.20
2019-05-21T10:44:44.453Z,25.60
2019-05-21T10:49:48.879Z,25.90
2019-05-21T10:54:53.249Z,26.20
2019-05-21T10:59:57.678Z,26.50
2019-05-21T11:05:21.811Z,26.60
2019-05-21T11:10:26.295Z,26.80
2019-05-21T11:15:30.726Z,27.10
2019-05-21T11:20:35.188Z,27.00
2019-05-21T11:25:39.573Z,27.30
2019-05-21T11:30:43.974Z,28.20
2019-05-21T11:35:49.454Z,27.70
2019-05-21T11:40:53.979Z,26.80
2019-05-21T11:45:58.412Z,26.50
2019-05-21T11:51:02.768Z,26.80
2019-05-21T11:56:07.106Z,26.70
2019-05-21T12:01:11.866Z,26.50
2019-05-21T12:06:16.291Z,26.20
2019-05-21T12:11:20.685Z,25.90
2019-05-21T12:16:26.739Z,25.80
2019-05-21T12:21:31.072Z,25.50
2019-05-21T12:26:35.418Z,25.50
2019-05-21T12:31:39.831Z,25.30
2019-05-21T12:36:44.175Z,25.10
2019-05-21T12:41:48.508Z,25.50
2019-05-21T12:46:52.865Z,25.90
2019-05-21T12:51:57.283Z,26.10
2019-05-21T12:57:01.658Z,26.20
2019-05-21T13:02:06.113Z,26.40
2019-05-21T13:07:10.653Z,26.80
2019-05-21T13:12:15.082Z,26.70
2019-05-21T13:17:19.651Z,26.70
2019-05-21T13:22:24.297Z,27.10
2019-05-21T13:27:28.676Z,27.70
2019-05-21T13:32:33.072Z,27.30
2019-05-21T13:37:37.464Z,28.30
2019-05-21T13:42:42.335Z,29.70
2019-05-21T13:47:46.812Z,29.20
2019-05-21T13:52:51.475Z,28.10
2019-05-21T13:57:56.138Z,27.60
2019-05-21T14:03:02.392Z,27.20
2019-05-21T14:08:06.809Z,27.00
2019-05-21T14:13:11.601Z,26.60
2019-05-21T14:18:15.951Z,26.50
2019-05-21T14:23:20.356Z,26.10
2019-05-21T14:28:24.759Z,26.10
2019-05-21T14:33:29.218Z,31.10
2019-05-21T14:38:33.597Z,33.70
2019-05-21T14:43:38.026Z,35.30
2019-05-21T14:48:42.412Z,38.50
2019-05-21T14:53:47.080Z,38.80
2019-05-21T14:58:51.470Z,41.40
2019-05-21T15:03:55.982Z,39.40
2019-05-21T15:09:00.430Z,40.10
2019-05-21T15:14:04.971Z,37.10
2019-05-21T15:19:09.455Z,38.30
2019-05-21T15:24:14.805Z,36.60
2019-05-21T15:29:20.191Z,33.50
2019-05-21T15:34:24.519Z,31.20
2019-05-21T15:39:28.878Z,34.60
2019-05-21T15:44:33.217Z,33.80
2019-05-21T15:49:38.575Z,29.30
2019-05-21T15:54:42.928Z,29.00
2019-05-21T15:59:47.300Z,27.90
2019-05-21T16:04:51.784Z,26.70
2019-05-21T16:09:56.286Z,25.60
2019-05-21T16:15:00.697Z,25.20
2019-05-21T16:20:10.004Z,25.00
2019-05-21T16:25:16.543Z,24.70
2019-05-21T16:30:20.951Z,24.50
2019-05-21T16:35:25.334Z,24.10
2019-05-21T16:40:29.734Z,24.00
2019-05-21T16:45:34.069Z,23.90
2019-05-21T16:50:44.222Z,23.70
2019-05-21T16:55:50.040Z,23.50
2019-05-21T17:00:54.451Z,23.30
2019-05-21T17:05:58.801Z,23.00
2019-05-21T17:11:03.146Z,22.90
2019-05-21T17:16:07.499Z,22.80
2019-05-21T17:21:11.959Z,22.80
2019-05-21T17:26:16.307Z,22.70
2019-05-21T17:31:20.746Z,22.70
2019-05-21T17:36:25.165Z,22.50
2019-05-21T17:41:29.508Z,22.40
2019-05-21T17:46:33.924Z,22.30
2019-05-21T17:51:38.275Z,22.10
2019-05-21T17:56:42.680Z,22.10
2019-05-21T18:01:47.195Z,22.00
2019-05-21T18:06:51.604Z,21.90
2019-05-21T18:12:00.447Z,21.80
2019-05-21T18:17:05.627Z,21.70
2019-05-21T18:22:12.906Z,21.50
2019-05-21T18:27:17.717Z,21.50
2019-05-21T18:32:22.174Z,21.40
2019-05-21T18:37:27.665Z,21.30
2019-05-21T18:42:32.119Z,21.20
2019-05-21T18:47:36.547Z,21.10
2019-05-21T18:52:41.025Z,21.00
2019-05-21T18:57:45.447Z,20.90
2019-05-21T19:02:50.629Z,20.80
2019-05-21T19:07:55.059Z,20.70
2019-05-21T19:13:01.357Z,20.60
2019-05-21T19:18:06.163Z,20.60
2019-05-21T19:23:10.517Z,20.50
2019-05-21T19:28:14.933Z,20.50
2019-05-21T19:33:19.284Z,20.50
2019-05-21T19:38:23.793Z,20.40
2019-05-21T19:43:29.416Z,20.30
2019-05-21T19:48:35.035Z,20.30
2019-05-21T19:53:39.373Z,20.20
2019-05-21T19:58:43.816Z,20.20
2019-05-21T20:03:48.905Z,19.90
2019-05-21T20:08:55.920Z,19.60
2019-05-21T20:14:01.324Z,19.50
2019-05-21T20:19:06.217Z,19.30
2019-05-21T20:24:10.644Z,19.20
2019-05-21T20:29:16.180Z,18.20
2019-05-21T20:34:20.511Z,17.80
2019-05-21T20:39:26.508Z,17.40
2019-05-21T20:44:31.008Z,17.20
2019-05-21T20:49:35.920Z,17.10
2019-05-21T20:54:42.715Z,16.70
2019-05-21T20:59:47.124Z,16.40
2019-05-21T21:04:51.575Z,16.00
2019-05-21T21:09:56.044Z,15.60
2019-05-21T21:15:01.735Z,15.40
2019-05-21T21:20:07.830Z,15.30
2019-05-21T21:25:13.348Z,15.30
2019-05-21T21:30:17.855Z,15.30
2019-05-21T21:35:22.977Z,15.40
2019-05-21T21:40:27.363Z,15.40
2019-05-21T21:45:32.327Z,15.40
2019-05-21T21:50:38.802Z,15.50
2019-05-21T21:55:43.224Z,15.50
2019-05-21T22:01:14.770Z,15.50
2019-05-21T22:06:22.413Z,15.50
2019-05-21T22:11:28.200Z,15.60
2019-05-21T22:16:33.575Z,15.60
2019-05-21T22:21:38.834Z,15.70
2019-05-21T22:26:43.757Z,15.70
2019-05-21T22:31:48.388Z,15.80
2019-05-21T22:36:53.121Z,15.80
2019-05-21T22:41:57.611Z,15.80
2019-05-21T22:47:02.603Z,15.80
2019-05-21T22:52:06.983Z,15.80
2019-05-21T22:57:11.419Z,15.90
2019-05-21T23:02:17.470Z,15.90
2019-05-21T23:07:21.968Z,15.90
2019-05-21T23:12:27.249Z,15.90
2019-05-21T23:17:31.652Z,15.90
2019-05-21T23:22:38.181Z,15.90
2019-05-21T23:27:42.810Z,15.90
2019-05-21T23:32:47.144Z,15.90
2019-05-21T23:37:52.033Z,15.90
2019-05-21T23:42:56.459Z,15.90
2019-05-21T23:48:02.600Z,15.90
2019-05-21T23:53:08.043Z,15.90
2019-05-21T23:58:13.009Z,16.00
